sensor_id;sensor_type;location;lat;lon;timestamp;temperature;humidity
15115;DHT22;7658;51.456;7.622;2022-10-31T00:02:10;11.60;99.90
15115;DHT22;7658;51.456;7.622;2022-10-31T00:04:36;11.70;99.90
15115;DHT22;7658;51.456;7.622;2022-10-31T00:07:02;11.70;99.90
15115;DHT22;7658;51.456;7.622;2022-10-31T00:09:27;11.80;99.90
15115;DHT22;7658;51.456;7.622;2022-10-31T00:11:53;11.80;99.90
15115;DHT22;7658;51.456;7.622;2022-10-31T00:14:19;11.80;99.90
15115;DHT22;7658;51.456;7.622;2022-10-31T00:16:45;11.80;99.90
15115;DHT22;7658;51.456;7.622;2022-10-31T00:19:10;11.80;99.90
15115;DHT22;7658;51.456;7.622;2022-10-31T00:21:36;11.80;99.90
15115;DHT22;7658;51.456;7.622;2022-10-31T00:24:02;11.80;99.90
15115;DHT22;7658;51.456;7.622;2022-10-31T00:26:29;11.80;99.90
15115;DHT22;7658;51.456;7.622;2022-10-31T00:28:55;11.80;99.90
15115;DHT22;7658;51.456;7.622;2022-10-31T00:31:21;11.80;99.90
15115;DHT22;7658;51.456;7.622;2022-10-31T00:33:47;11.90;99.90
15115;DHT22;7658;51.456;7.622;2022-10-31T00:36:15;11.90;99.90
15115;DHT22;7658;51.456;7.622;2022-10-31T00:38:42;11.90;99.90
15115;DHT22;7658;51.456;7.622;2022-10-31T00:41:09;12.00;99.90
15115;DHT22;7658;51.456;7.622;2022-10-31T00:43:35;12.00;99.90
15115;DHT22;7658;51.456;7.622;2022-10-31T00:46:01;12.00;99.90
15115;DHT22;7658;51.456;7.622;2022-10-31T00:48:27;11.90;99.90
15115;DHT22;7658;51.456;7.622;2022-10-31T00:50:52;11.90;99.90
15115;DHT22;7658;51.456;7.622;2022-10-31T00:53:18;11.90;99.90
15115;DHT22;7658;51.456;7.622;2022-10-31T00:55:44;11.90;99.90
15115;DHT22;7658;51.456;7.622;2022-10-31T00:58:09;11.90;99.90
15115;DHT22;7658;51.456;7.622;2022-10-31T01:00:35;11.90;99.90
15115;DHT22;7658;51.456;7.622;2022-10-31T01:03:01;11.90;99.90
15115;DHT22;7658;51.456;7.622;2022-10-31T01:05:27;11.90;99.90
15115;DHT22;7658;51.456;7.622;2022-10-31T01:07:52;11.90;99.90
15115;DHT22;7658;51.456;7.622;2022-10-31T01:10:18;11.80;99.90
15115;DHT22;7658;51.456;7.622;2022-10-31T01:12:46;11.70;99.90
15115;DHT22;7658;51.456;7.622;2022-10-31T01:15:14;11.80;99.90
15115;DHT22;7658;51.456;7.622;2022-10-31T01:17:41;11.80;99.90
15115;DHT22;7658;51.456;7.622;2022-10-31T01:20:08;11.80;99.90
15115;DHT22;7658;51.456;7.622;2022-10-31T01:22:33;11.80;99.90
15115;DHT22;7658;51.456;7.622;2022-10-31T01:24:59;11.80;99.90
15115;DHT22;7658;51.456;7.622;2022-10-31T01:27:25;11.80;99.90
15115;DHT22;7658;51.456;7.622;2022-10-31T01:29:51;11.80;99.90
15115;DHT22;7658;51.456;7.622;2022-10-31T01:32:17;11.90;99.90
15115;DHT22;7658;51.456;7.622;2022-10-31T01:34:42;11.90;99.90
15115;DHT22;7658;51.456;7.622;2022-10-31T01:37:08;12.00;99.90
15115;DHT22;7658;51.456;7.622;2022-10-31T01:39:34;12.00;99.90
15115;DHT22;7658;51.456;7.622;2022-10-31T01:41:59;12.00;99.90
15115;DHT22;7658;51.456;7.622;2022-10-31T01:49:40;12.00;99.90
15115;DHT22;7658;51.456;7.622;2022-10-31T01:52:36;12.00;99.90
15115;DHT22;7658;51.456;7.622;2022-10-31T01:57:33;12.00;99.90
15115;DHT22;7658;51.456;7.622;2022-10-31T02:00:04;12.00;99.90
15115;DHT22;7658;51.456;7.622;2022-10-31T02:02:31;12.10;99.90
15115;DHT22;7658;51.456;7.622;2022-10-31T02:05:00;12.10;99.90
15115;DHT22;7658;51.456;7.622;2022-10-31T02:07:32;12.10;99.90
15115;DHT22;7658;51.456;7.622;2022-10-31T02:10:00;12.10;99.90
15115;DHT22;7658;51.456;7.622;2022-10-31T02:12:28;12.10;99.90
15115;DHT22;7658;51.456;7.622;2022-10-31T02:14:55;12.20;99.90
15115;DHT22;7658;51.456;7.622;2022-10-31T02:17:21;12.20;99.90
15115;DHT22;7658;51.456;7.622;2022-10-31T02:22:27;12.20;99.90
15115;DHT22;7658;51.456;7.622;2022-10-31T02:30:51;12.20;99.90
15115;DHT22;7658;51.456;7.622;2022-10-31T02:33:29;12.10;99.90
15115;DHT22;7658;51.456;7.622;2022-10-31T02:41:18;12.00;99.90
15115;DHT22;7658;51.456;7.622;2022-10-31T02:46:23;12.00;99.90
15115;DHT22;7658;51.456;7.622;2022-10-31T02:48:54;11.90;99.90
15115;DHT22;7658;51.456;7.622;2022-10-31T02:51:22;11.90;99.90
15115;DHT22;7658;51.456;7.622;2022-10-31T02:53:48;11.80;99.90
15115;DHT22;7658;51.456;7.622;2022-10-31T02:56:17;11.80;99.90
15115;DHT22;7658;51.456;7.622;2022-10-31T03:14:26;11.60;99.90
15115;DHT22;7658;51.456;7.622;2022-10-31T03:16:54;11.60;99.90
15115;DHT22;7658;51.456;7.622;2022-10-31T03:19:27;11.50;99.90
15115;DHT22;7658;51.456;7.622;2022-10-31T03:24:39;11.40;99.90
15115;DHT22;7658;51.456;7.622;2022-10-31T03:27:09;11.40;99.90
15115;DHT22;7658;51.456;7.622;2022-10-31T03:29:36;11.30;99.90
15115;DHT22;7658;51.456;7.622;2022-10-31T03:32:48;11.30;99.90
15115;DHT22;7658;51.456;7.622;2022-10-31T03:34:57;11.30;99.90
15115;DHT22;7658;51.456;7.622;2022-10-31T03:37:27;11.30;99.90
15115;DHT22;7658;51.456;7.622;2022-10-31T03:39:55;11.20;99.90
15115;DHT22;7658;51.456;7.622;2022-10-31T03:42:24;11.30;99.90
15115;DHT22;7658;51.456;7.622;2022-10-31T03:45:13;11.20;99.90
15115;DHT22;7658;51.456;7.622;2022-10-31T03:47:41;11.30;99.90
15115;DHT22;7658;51.456;7.622;2022-10-31T03:50:09;11.40;99.90
15115;DHT22;7658;51.456;7.622;2022-10-31T03:55:40;11.40;99.90
15115;DHT22;7658;51.456;7.622;2022-10-31T03:58:28;11.50;99.90
15115;DHT22;7658;51.456;7.622;2022-10-31T04:00:56;11.50;99.90
15115;DHT22;7658;51.456;7.622;2022-10-31T04:03:26;11.50;99.90
15115;DHT22;7658;51.456;7.622;2022-10-31T04:05:56;11.50;99.90
15115;DHT22;7658;51.456;7.622;2022-10-31T04:08:28;11.50;99.90
15115;DHT22;7658;51.456;7.622;2022-10-31T04:10:56;11.50;99.90
15115;DHT22;7658;51.456;7.622;2022-10-31T04:13:30;11.60;99.90
15115;DHT22;7658;51.456;7.622;2022-10-31T04:15:57;11.60;99.90
15115;DHT22;7658;51.456;7.622;2022-10-31T04:18:23;11.60;99.90
15115;DHT22;7658;51.456;7.622;2022-10-31T04:20:58;11.70;99.90
15115;DHT22;7658;51.456;7.622;2022-10-31T04:23:26;11.70;99.90
15115;DHT22;7658;51.456;7.622;2022-10-31T04:25:51;11.60;99.90
15115;DHT22;7658;51.456;7.622;2022-10-31T04:28:18;11.60;99.90
15115;DHT22;7658;51.456;7.622;2022-10-31T04:30:43;11.60;99.90
15115;DHT22;7658;51.456;7.622;2022-10-31T04:33:09;11.50;99.90
15115;DHT22;7658;51.456;7.622;2022-10-31T04:35:35;11.60;99.90
15115;DHT22;7658;51.456;7.622;2022-10-31T04:38:01;11.60;99.90
15115;DHT22;7658;51.456;7.622;2022-10-31T04:40:27;11.60;99.90
15115;DHT22;7658;51.456;7.622;2022-10-31T04:42:52;11.50;99.90
15115;DHT22;7658;51.456;7.622;2022-10-31T04:45:18;11.50;99.90
15115;DHT22;7658;51.456;7.622;2022-10-31T04:47:44;11.40;99.90
15115;DHT22;7658;51.456;7.622;2022-10-31T04:50:10;11.40;99.90
15115;DHT22;7658;51.456;7.622;2022-10-31T04:52:39;11.30;99.90
15115;DHT22;7658;51.456;7.622;2022-10-31T04:55:05;11.30;99.90
15115;DHT22;7658;51.456;7.622;2022-10-31T04:57:31;11.20;99.90
15115;DHT22;7658;51.456;7.622;2022-10-31T04:59:57;11.20;99.90
15115;DHT22;7658;51.456;7.622;2022-10-31T05:02:22;11.20;99.90
15115;DHT22;7658;51.456;7.622;2022-10-31T05:04:48;11.20;99.90
15115;DHT22;7658;51.456;7.622;2022-10-31T05:07:14;11.20;99.90
15115;DHT22;7658;51.456;7.622;2022-10-31T05:09:39;11.30;99.90
15115;DHT22;7658;51.456;7.622;2022-10-31T05:12:05;11.30;99.90
15115;DHT22;7658;51.456;7.622;2022-10-31T05:14:31;11.30;99.90
15115;DHT22;7658;51.456;7.622;2022-10-31T05:16:56;11.20;99.90
15115;DHT22;7658;51.456;7.622;2022-10-31T05:19:22;11.30;99.90
15115;DHT22;7658;51.456;7.622;2022-10-31T05:21:48;11.30;99.90
15115;DHT22;7658;51.456;7.622;2022-10-31T05:24:13;11.20;99.90
15115;DHT22;7658;51.456;7.622;2022-10-31T05:26:39;11.10;99.90
15115;DHT22;7658;51.456;7.622;2022-10-31T05:29:05;11.10;99.90
15115;DHT22;7658;51.456;7.622;2022-10-31T05:31:31;11.10;99.90
15115;DHT22;7658;51.456;7.622;2022-10-31T05:33:56;11.00;99.90
15115;DHT22;7658;51.456;7.622;2022-10-31T05:36:22;10.90;99.90
15115;DHT22;7658;51.456;7.622;2022-10-31T05:38:48;10.90;99.90
15115;DHT22;7658;51.456;7.622;2022-10-31T05:41:13;10.80;99.90
15115;DHT22;7658;51.456;7.622;2022-10-31T05:43:39;10.80;99.90
15115;DHT22;7658;51.456;7.622;2022-10-31T05:46:05;10.80;99.90
15115;DHT22;7658;51.456;7.622;2022-10-31T05:48:30;10.80;99.90
15115;DHT22;7658;51.456;7.622;2022-10-31T05:50:56;10.80;99.90
15115;DHT22;7658;51.456;7.622;2022-10-31T05:53:22;10.70;99.90
15115;DHT22;7658;51.456;7.622;2022-10-31T05:55:47;10.70;99.90
15115;DHT22;7658;51.456;7.622;2022-10-31T05:58:13;10.70;99.90
15115;DHT22;7658;51.456;7.622;2022-10-31T06:00:39;10.70;99.90
15115;DHT22;7658;51.456;7.622;2022-10-31T06:03:06;10.60;99.90
15115;DHT22;7658;51.456;7.622;2022-10-31T06:05:32;10.60;99.90
15115;DHT22;7658;51.456;7.622;2022-10-31T06:07:58;10.60;99.90
15115;DHT22;7658;51.456;7.622;2022-10-31T06:10:24;10.60;99.90
15115;DHT22;7658;51.456;7.622;2022-10-31T06:12:50;10.60;99.90
15115;DHT22;7658;51.456;7.622;2022-10-31T06:15:16;10.60;99.90
15115;DHT22;7658;51.456;7.622;2022-10-31T06:17:42;10.60;99.90
15115;DHT22;7658;51.456;7.622;2022-10-31T06:20:09;10.60;99.90
15115;DHT22;7658;51.456;7.622;2022-10-31T06:22:35;10.60;99.90
15115;DHT22;7658;51.456;7.622;2022-10-31T06:25:00;10.60;99.90
15115;DHT22;7658;51.456;7.622;2022-10-31T06:27:26;10.50;99.90
15115;DHT22;7658;51.456;7.622;2022-10-31T06:29:52;10.40;99.90
15115;DHT22;7658;51.456;7.622;2022-10-31T06:32:18;10.40;99.90
15115;DHT22;7658;51.456;7.622;2022-10-31T06:34:44;10.40;99.90
15115;DHT22;7658;51.456;7.622;2022-10-31T06:37:13;10.40;99.90
15115;DHT22;7658;51.456;7.622;2022-10-31T06:39:39;10.40;99.90
15115;DHT22;7658;51.456;7.622;2022-10-31T06:42:05;10.40;99.90
15115;DHT22;7658;51.456;7.622;2022-10-31T06:44:31;10.40;99.90
15115;DHT22;7658;51.456;7.622;2022-10-31T06:46:57;10.50;99.90
15115;DHT22;7658;51.456;7.622;2022-10-31T06:49:23;10.50;99.90
15115;DHT22;7658;51.456;7.622;2022-10-31T06:51:49;10.50;99.90
15115;DHT22;7658;51.456;7.622;2022-10-31T06:54:16;10.50;99.90
15115;DHT22;7658;51.456;7.622;2022-10-31T06:56:42;10.60;99.90
15115;DHT22;7658;51.456;7.622;2022-10-31T06:59:07;10.60;99.90
15115;DHT22;7658;51.456;7.622;2022-10-31T07:01:33;10.70;99.90
15115;DHT22;7658;51.456;7.622;2022-10-31T07:03:59;10.70;99.90
15115;DHT22;7658;51.456;7.622;2022-10-31T07:06:25;10.70;99.90
15115;DHT22;7658;51.456;7.622;2022-10-31T07:08:50;10.70;99.90
15115;DHT22;7658;51.456;7.622;2022-10-31T07:11:16;10.70;99.90
15115;DHT22;7658;51.456;7.622;2022-10-31T07:13:42;10.70;99.90
15115;DHT22;7658;51.456;7.622;2022-10-31T07:16:08;10.70;99.90
15115;DHT22;7658;51.456;7.622;2022-10-31T07:18:36;10.70;99.90
15115;DHT22;7658;51.456;7.622;2022-10-31T07:21:02;10.80;99.90
15115;DHT22;7658;51.456;7.622;2022-10-31T07:23:27;10.80;99.90
15115;DHT22;7658;51.456;7.622;2022-10-31T07:25:56;10.80;99.90
15115;DHT22;7658;51.456;7.622;2022-10-31T07:28:23;10.80;99.90
15115;DHT22;7658;51.456;7.622;2022-10-31T07:30:56;10.80;99.90
15115;DHT22;7658;51.456;7.622;2022-10-31T07:33:23;10.90;99.90
15115;DHT22;7658;51.456;7.622;2022-10-31T07:35:51;10.90;99.90
15115;DHT22;7658;51.456;7.622;2022-10-31T07:38:17;10.90;99.90
15115;DHT22;7658;51.456;7.622;2022-10-31T07:40:43;10.90;99.90
15115;DHT22;7658;51.456;7.622;2022-10-31T07:43:10;11.00;99.90
15115;DHT22;7658;51.456;7.622;2022-10-31T07:45:36;11.10;99.90
15115;DHT22;7658;51.456;7.622;2022-10-31T07:48:02;11.10;99.90
15115;DHT22;7658;51.456;7.622;2022-10-31T07:50:30;11.20;99.90
15115;DHT22;7658;51.456;7.622;2022-10-31T07:53:03;11.30;99.90
15115;DHT22;7658;51.456;7.622;2022-10-31T07:55:30;11.40;99.90
15115;DHT22;7658;51.456;7.622;2022-10-31T07:58:03;11.50;99.90
15115;DHT22;7658;51.456;7.622;2022-10-31T08:00:30;11.50;99.90
15115;DHT22;7658;51.456;7.622;2022-10-31T08:03:00;11.60;99.90
15115;DHT22;7658;51.456;7.622;2022-10-31T08:05:26;11.60;99.90
15115;DHT22;7658;51.456;7.622;2022-10-31T08:07:52;11.70;99.90
15115;DHT22;7658;51.456;7.622;2022-10-31T08:10:18;11.70;99.90
15115;DHT22;7658;51.456;7.622;2022-10-31T08:12:44;11.80;99.90
15115;DHT22;7658;51.456;7.622;2022-10-31T08:15:10;11.80;99.90
15115;DHT22;7658;51.456;7.622;2022-10-31T08:17:36;11.90;99.90
15115;DHT22;7658;51.456;7.622;2022-10-31T08:20:03;11.90;99.90
15115;DHT22;7658;51.456;7.622;2022-10-31T08:22:29;12.00;99.90
15115;DHT22;7658;51.456;7.622;2022-10-31T08:24:55;11.90;99.90
15115;DHT22;7658;51.456;7.622;2022-10-31T08:27:21;12.00;99.90
15115;DHT22;7658;51.456;7.622;2022-10-31T08:29:46;12.10;99.90
15115;DHT22;7658;51.456;7.622;2022-10-31T08:32:12;12.10;99.90
15115;DHT22;7658;51.456;7.622;2022-10-31T08:34:38;12.10;99.90
15115;DHT22;7658;51.456;7.622;2022-10-31T08:37:04;12.20;99.90
15115;DHT22;7658;51.456;7.622;2022-10-31T08:39:30;12.20;99.90
15115;DHT22;7658;51.456;7.622;2022-10-31T08:41:55;12.30;99.90
15115;DHT22;7658;51.456;7.622;2022-10-31T08:44:21;12.40;99.90
15115;DHT22;7658;51.456;7.622;2022-10-31T08:46:47;12.40;99.90
15115;DHT22;7658;51.456;7.622;2022-10-31T08:49:12;12.60;99.90
15115;DHT22;7658;51.456;7.622;2022-10-31T08:51:38;12.70;99.90
15115;DHT22;7658;51.456;7.622;2022-10-31T08:54:04;12.80;99.90
15115;DHT22;7658;51.456;7.622;2022-10-31T08:56:30;12.90;99.90
15115;DHT22;7658;51.456;7.622;2022-10-31T08:58:55;13.00;99.90
15115;DHT22;7658;51.456;7.622;2022-10-31T09:01:21;13.10;99.90
15115;DHT22;7658;51.456;7.622;2022-10-31T09:03:47;13.20;99.90
15115;DHT22;7658;51.456;7.622;2022-10-31T09:06:13;13.30;99.90
15115;DHT22;7658;51.456;7.622;2022-10-31T09:08:38;13.40;99.90
15115;DHT22;7658;51.456;7.622;2022-10-31T09:11:04;13.50;99.90
15115;DHT22;7658;51.456;7.622;2022-10-31T09:13:32;13.50;99.90
15115;DHT22;7658;51.456;7.622;2022-10-31T09:15:58;13.50;99.90
15115;DHT22;7658;51.456;7.622;2022-10-31T09:18:24;13.60;99.90
15115;DHT22;7658;51.456;7.622;2022-10-31T09:20:50;13.70;99.90
15115;DHT22;7658;51.456;7.622;2022-10-31T09:23:21;13.70;99.90
15115;DHT22;7658;51.456;7.622;2022-10-31T09:25:49;13.80;99.90
15115;DHT22;7658;51.456;7.622;2022-10-31T09:28:19;13.80;99.90
15115;DHT22;7658;51.456;7.622;2022-10-31T09:30:52;13.90;99.90
15115;DHT22;7658;51.456;7.622;2022-10-31T09:33:18;13.90;99.90
15115;DHT22;7658;51.456;7.622;2022-10-31T09:35:44;13.90;99.90
15115;DHT22;7658;51.456;7.622;2022-10-31T09:38:12;14.00;99.90
15115;DHT22;7658;51.456;7.622;2022-10-31T09:40:43;14.00;99.90
15115;DHT22;7658;51.456;7.622;2022-10-31T09:43:32;14.10;99.90
15115;DHT22;7658;51.456;7.622;2022-10-31T09:51:50;14.30;99.90
15115;DHT22;7658;51.456;7.622;2022-10-31T09:54:26;14.30;99.90
15115;DHT22;7658;51.456;7.622;2022-10-31T09:56:52;14.20;99.90
15115;DHT22;7658;51.456;7.622;2022-10-31T09:59:36;14.30;99.90
15115;DHT22;7658;51.456;7.622;2022-10-31T10:09:43;14.50;99.90
15115;DHT22;7658;51.456;7.622;2022-10-31T10:21:00;14.70;99.90
15115;DHT22;7658;51.456;7.622;2022-10-31T10:26:37;14.80;99.90
15115;DHT22;7658;51.456;7.622;2022-10-31T10:31:55;14.90;99.90
15115;DHT22;7658;51.456;7.622;2022-10-31T10:34:23;15.00;99.90
15115;DHT22;7658;51.456;7.622;2022-10-31T10:36:56;15.10;99.90
15115;DHT22;7658;51.456;7.622;2022-10-31T10:39:45;15.10;99.90
15115;DHT22;7658;51.456;7.622;2022-10-31T10:42:14;15.20;99.90
15115;DHT22;7658;51.456;7.622;2022-10-31T10:44:59;15.30;99.90
15115;DHT22;7658;51.456;7.622;2022-10-31T10:47:48;15.30;99.90
15115;DHT22;7658;51.456;7.622;2022-10-31T10:50:23;15.40;99.90
15115;DHT22;7658;51.456;7.622;2022-10-31T10:53:44;15.40;99.90
15115;DHT22;7658;51.456;7.622;2022-10-31T10:56:11;15.50;99.90
15115;DHT22;7658;51.456;7.622;2022-10-31T10:58:41;15.60;99.90
15115;DHT22;7658;51.456;7.622;2022-10-31T11:01:14;15.80;99.90
15115;DHT22;7658;51.456;7.622;2022-10-31T11:03:41;15.90;99.90
15115;DHT22;7658;51.456;7.622;2022-10-31T11:06:23;16.10;99.90
15115;DHT22;7658;51.456;7.622;2022-10-31T11:08:52;16.40;99.90
15115;DHT22;7658;51.456;7.622;2022-10-31T11:11:28;16.60;99.90
15115;DHT22;7658;51.456;7.622;2022-10-31T11:14:12;16.90;99.90
15115;DHT22;7658;51.456;7.622;2022-10-31T11:16:42;17.20;99.90
15115;DHT22;7658;51.456;7.622;2022-10-31T11:21:47;17.90;99.90
15115;DHT22;7658;51.456;7.622;2022-10-31T11:24:18;18.20;99.90
15115;DHT22;7658;51.456;7.622;2022-10-31T11:26:46;18.50;99.90
15115;DHT22;7658;51.456;7.622;2022-10-31T11:29:24;18.70;99.90
15115;DHT22;7658;51.456;7.622;2022-10-31T11:31:52;18.80;99.90
15115;DHT22;7658;51.456;7.622;2022-10-31T11:34:28;18.80;99.90
15115;DHT22;7658;51.456;7.622;2022-10-31T11:37:15;18.90;99.90
15115;DHT22;7658;51.456;7.622;2022-10-31T11:39:45;19.00;99.90
15115;DHT22;7658;51.456;7.622;2022-10-31T11:42:20;19.10;99.90
15115;DHT22;7658;51.456;7.622;2022-10-31T11:44:46;19.10;99.90
15115;DHT22;7658;51.456;7.622;2022-10-31T11:47:15;19.10;99.90
15115;DHT22;7658;51.456;7.622;2022-10-31T11:49:46;18.90;99.90
15115;DHT22;7658;51.456;7.622;2022-10-31T11:52:18;18.90;99.90
15115;DHT22;7658;51.456;7.622;2022-10-31T11:57:31;18.20;99.90
15115;DHT22;7658;51.456;7.622;2022-10-31T12:00:00;18.20;99.90
15115;DHT22;7658;51.456;7.622;2022-10-31T12:02:27;18.10;99.90
15115;DHT22;7658;51.456;7.622;2022-10-31T12:07:32;18.10;99.90
15115;DHT22;7658;51.456;7.622;2022-10-31T12:09:58;18.00;99.90
15115;DHT22;7658;51.456;7.622;2022-10-31T12:15:29;18.10;99.90
15115;DHT22;7658;51.456;7.622;2022-10-31T12:23:45;18.60;99.90
15115;DHT22;7658;51.456;7.622;2022-10-31T12:39:39;18.80;99.90
15115;DHT22;7658;51.456;7.622;2022-10-31T12:48:13;19.10;99.90
15115;DHT22;7658;51.456;7.622;2022-10-31T12:51:01;19.30;99.90
15115;DHT22;7658;51.456;7.622;2022-10-31T13:01:17;19.70;99.90
15115;DHT22;7658;51.456;7.622;2022-10-31T13:03:54;19.70;99.90
15115;DHT22;7658;51.456;7.622;2022-10-31T13:06:29;19.70;99.90
15115;DHT22;7658;51.456;7.622;2022-10-31T13:09:06;19.70;99.90
15115;DHT22;7658;51.456;7.622;2022-10-31T13:11:42;19.70;99.90
15115;DHT22;7658;51.456;7.622;2022-10-31T13:14:25;19.60;99.90
15115;DHT22;7658;51.456;7.622;2022-10-31T13:16:54;19.70;99.90
15115;DHT22;7658;51.456;7.622;2022-10-31T13:19:45;19.80;99.90
15115;DHT22;7658;51.456;7.622;2022-10-31T13:22:35;19.70;99.90
15115;DHT22;7658;51.456;7.622;2022-10-31T13:25:40;19.80;99.90
15115;DHT22;7658;51.456;7.622;2022-10-31T13:30:53;19.50;99.90
15115;DHT22;7658;51.456;7.622;2022-10-31T13:33:35;19.50;99.90
15115;DHT22;7658;51.456;7.622;2022-10-31T13:36:21;19.40;99.90
15115;DHT22;7658;51.456;7.622;2022-10-31T13:39:18;19.50;99.90
15115;DHT22;7658;51.456;7.622;2022-10-31T13:42:10;19.40;99.90
15115;DHT22;7658;51.456;7.622;2022-10-31T13:44:38;19.30;99.90
15115;DHT22;7658;51.456;7.622;2022-10-31T13:47:29;19.30;99.90
15115;DHT22;7658;51.456;7.622;2022-10-31T13:50:19;19.20;99.90
15115;DHT22;7658;51.456;7.622;2022-10-31T13:52:45;19.10;99.90
15115;DHT22;7658;51.456;7.622;2022-10-31T13:58:04;18.90;99.90
15115;DHT22;7658;51.456;7.622;2022-10-31T14:00:31;18.80;99.90
15115;DHT22;7658;51.456;7.622;2022-10-31T14:03:01;18.80;99.90
15115;DHT22;7658;51.456;7.622;2022-10-31T14:05:29;18.70;99.90
15115;DHT22;7658;51.456;7.622;2022-10-31T14:07:57;18.60;99.90
15115;DHT22;7658;51.456;7.622;2022-10-31T14:10:32;18.50;99.90
15115;DHT22;7658;51.456;7.622;2022-10-31T14:13:13;18.50;99.90
15115;DHT22;7658;51.456;7.622;2022-10-31T14:15:42;18.50;99.90
15115;DHT22;7658;51.456;7.622;2022-10-31T14:18:24;18.40;99.90
15115;DHT22;7658;51.456;7.622;2022-10-31T14:20:50;18.40;99.90
15115;DHT22;7658;51.456;7.622;2022-10-31T14:23:35;18.30;99.90
15115;DHT22;7658;51.456;7.622;2022-10-31T14:26:17;18.30;99.90
15115;DHT22;7658;51.456;7.622;2022-10-31T14:28:44;18.30;99.90
15115;DHT22;7658;51.456;7.622;2022-10-31T14:33:54;18.30;99.90
15115;DHT22;7658;51.456;7.622;2022-10-31T14:36:54;18.30;99.90
15115;DHT22;7658;51.456;7.622;2022-10-31T14:50:57;18.20;99.90
15115;DHT22;7658;51.456;7.622;2022-10-31T14:53:31;18.20;99.90
15115;DHT22;7658;51.456;7.622;2022-10-31T14:55:59;18.10;99.90
15115;DHT22;7658;51.456;7.622;2022-10-31T15:00:58;18.00;99.90
15115;DHT22;7658;51.456;7.622;2022-10-31T15:05:56;17.90;99.90
15115;DHT22;7658;51.456;7.622;2022-10-31T15:08:41;17.90;99.90
15115;DHT22;7658;51.456;7.622;2022-10-31T15:13:48;17.70;99.90
15115;DHT22;7658;51.456;7.622;2022-10-31T15:16:34;17.70;99.90
15115;DHT22;7658;51.456;7.622;2022-10-31T15:19:05;17.70;99.90
15115;DHT22;7658;51.456;7.622;2022-10-31T15:21:33;17.60;99.90
15115;DHT22;7658;51.456;7.622;2022-10-31T15:24:01;17.60;99.90
15115;DHT22;7658;51.456;7.622;2022-10-31T15:26:38;17.60;99.90
15115;DHT22;7658;51.456;7.622;2022-10-31T15:29:12;17.60;99.90
15115;DHT22;7658;51.456;7.622;2022-10-31T15:31:38;17.50;99.90
15115;DHT22;7658;51.456;7.622;2022-10-31T15:34:11;17.50;99.90
15115;DHT22;7658;51.456;7.622;2022-10-31T15:36:39;17.40;99.90
15115;DHT22;7658;51.456;7.622;2022-10-31T15:39:08;17.40;99.90
15115;DHT22;7658;51.456;7.622;2022-10-31T15:41:36;17.40;99.90
15115;DHT22;7658;51.456;7.622;2022-10-31T15:44:15;17.40;99.90
15115;DHT22;7658;51.456;7.622;2022-10-31T15:46:42;17.30;99.90
15115;DHT22;7658;51.456;7.622;2022-10-31T15:49:41;17.30;99.90
15115;DHT22;7658;51.456;7.622;2022-10-31T15:54:54;17.20;99.90
15115;DHT22;7658;51.456;7.622;2022-10-31T15:57:22;17.20;99.90
15115;DHT22;7658;51.456;7.622;2022-10-31T15:59:49;17.10;99.90
15115;DHT22;7658;51.456;7.622;2022-10-31T16:02:20;17.10;99.90
15115;DHT22;7658;51.456;7.622;2022-10-31T16:04:58;17.00;99.90
15115;DHT22;7658;51.456;7.622;2022-10-31T16:07:25;17.00;99.90
15115;DHT22;7658;51.456;7.622;2022-10-31T16:09:54;16.90;99.90
15115;DHT22;7658;51.456;7.622;2022-10-31T16:12:22;16.90;99.90
15115;DHT22;7658;51.456;7.622;2022-10-31T16:14:50;16.80;99.90
15115;DHT22;7658;51.456;7.622;2022-10-31T16:17:20;16.80;99.90
15115;DHT22;7658;51.456;7.622;2022-10-31T16:20:06;16.80;99.90
15115;DHT22;7658;51.456;7.622;2022-10-31T16:22:37;16.70;99.90
15115;DHT22;7658;51.456;7.622;2022-10-31T16:25:11;16.70;99.90
15115;DHT22;7658;51.456;7.622;2022-10-31T16:27:38;16.70;99.90
15115;DHT22;7658;51.456;7.622;2022-10-31T16:30:47;16.60;99.90
15115;DHT22;7658;51.456;7.622;2022-10-31T16:36:29;16.50;99.90
15115;DHT22;7658;51.456;7.622;2022-10-31T16:38:46;16.50;99.90
15115;DHT22;7658;51.456;7.622;2022-10-31T16:41:12;16.50;99.90
15115;DHT22;7658;51.456;7.622;2022-10-31T16:43:38;16.40;99.90
15115;DHT22;7658;51.456;7.622;2022-10-31T16:46:04;16.40;99.90
15115;DHT22;7658;51.456;7.622;2022-10-31T16:48:29;16.40;99.90
15115;DHT22;7658;51.456;7.622;2022-10-31T16:50:55;16.30;99.90
15115;DHT22;7658;51.456;7.622;2022-10-31T16:53:21;16.30;99.90
15115;DHT22;7658;51.456;7.622;2022-10-31T16:55:56;16.20;99.90
15115;DHT22;7658;51.456;7.622;2022-10-31T16:58:28;16.20;99.90
15115;DHT22;7658;51.456;7.622;2022-10-31T17:00:56;16.10;99.90
15115;DHT22;7658;51.456;7.622;2022-10-31T17:03:22;16.10;99.90
15115;DHT22;7658;51.456;7.622;2022-10-31T17:05:48;16.10;99.90
15115;DHT22;7658;51.456;7.622;2022-10-31T17:08:14;16.00;99.90
15115;DHT22;7658;51.456;7.622;2022-10-31T17:10:42;15.90;99.90
15115;DHT22;7658;51.456;7.622;2022-10-31T17:13:13;15.90;99.90
15115;DHT22;7658;51.456;7.622;2022-10-31T17:15:45;15.80;99.90
15115;DHT22;7658;51.456;7.622;2022-10-31T17:18:15;15.80;99.90
15115;DHT22;7658;51.456;7.622;2022-10-31T17:20:41;15.80;99.90
15115;DHT22;7658;51.456;7.622;2022-10-31T17:23:12;15.80;99.90
15115;DHT22;7658;51.456;7.622;2022-10-31T17:25:38;15.70;99.90
15115;DHT22;7658;51.456;7.622;2022-10-31T17:28:05;15.80;99.90
15115;DHT22;7658;51.456;7.622;2022-10-31T17:30:32;15.80;99.90
15115;DHT22;7658;51.456;7.622;2022-10-31T17:32:58;15.70;99.90
15115;DHT22;7658;51.456;7.622;2022-10-31T17:35:24;15.70;99.90
15115;DHT22;7658;51.456;7.622;2022-10-31T17:37:50;15.80;99.90
15115;DHT22;7658;51.456;7.622;2022-10-31T17:40:18;15.80;99.90
15115;DHT22;7658;51.456;7.622;2022-10-31T17:42:51;15.80;99.90
15115;DHT22;7658;51.456;7.622;2022-10-31T17:45:19;15.80;99.90
15115;DHT22;7658;51.456;7.622;2022-10-31T17:47:46;15.90;99.90
15115;DHT22;7658;51.456;7.622;2022-10-31T17:50:18;15.90;99.90
15115;DHT22;7658;51.456;7.622;2022-10-31T17:52:44;16.10;99.90
15115;DHT22;7658;51.456;7.622;2022-10-31T17:55:10;16.10;99.90
15115;DHT22;7658;51.456;7.622;2022-10-31T17:57:36;16.20;99.90
15115;DHT22;7658;51.456;7.622;2022-10-31T18:00:04;16.20;99.90
15115;DHT22;7658;51.456;7.622;2022-10-31T18:02:30;16.30;99.90
15115;DHT22;7658;51.456;7.622;2022-10-31T18:04:56;16.30;99.90
15115;DHT22;7658;51.456;7.622;2022-10-31T18:07:22;16.30;99.90
15115;DHT22;7658;51.456;7.622;2022-10-31T18:09:48;16.30;99.90
15115;DHT22;7658;51.456;7.622;2022-10-31T18:12:14;16.30;99.90
15115;DHT22;7658;51.456;7.622;2022-10-31T18:14:41;16.20;99.90
15115;DHT22;7658;51.456;7.622;2022-10-31T18:17:07;16.20;99.90
15115;DHT22;7658;51.456;7.622;2022-10-31T18:19:33;16.10;99.90
15115;DHT22;7658;51.456;7.622;2022-10-31T18:21:59;16.10;99.90
15115;DHT22;7658;51.456;7.622;2022-10-31T18:24:24;16.00;99.90
15115;DHT22;7658;51.456;7.622;2022-10-31T18:26:50;16.00;99.90
15115;DHT22;7658;51.456;7.622;2022-10-31T18:29:16;15.90;99.90
15115;DHT22;7658;51.456;7.622;2022-10-31T18:31:42;15.80;99.90